Time;durP1;ratioP1;P1;durP2;ratioP2;P2;SDS_P1;SDS_P2;PMS_P1;PMS_P2;Temp;Humidity;BMP_temperature;BMP_pressure;BME280_temperature;BME280_humidity;BME280_pressure;Samples;Min_cycle;Max_cycle;Signal;HPM_P1;HPM_P2
2023/01/16 00:02:24;;;;;;;17.63;7.65;;;;;;;-0.06;100.00;98061.72;5160009;27;20115;-66
2023/01/16 00:04:50;;;;;;;17.05;8.90;;;;;;;0.06;100.00;98062.94;5159432;27;20051;-73
2023/01/16 00:07:16;;;;;;;12.88;6.75;;;;;;;-0.02;100.00;98065.34;5159740;27;20065;-64
2023/01/16 00:09:42;;;;;;;14.27;8.43;;;;;;;0.04;100.00;98065.97;5159488;27;20054;-71
2023/01/16 00:12:08;;;;;;;13.32;6.80;;;;;;;0.01;100.00;98061.22;5159529;27;20066;-67
2023/01/16 00:14:35;;;;;;;12.82;6.82;;;;;;;-0.11;100.00;98061.88;5159807;27;20047;-72
2023/01/16 00:17:01;;;;;;;18.40;9.15;;;;;;;0.09;100.00;98059.59;5159461;27;20050;-73
2023/01/16 00:19:28;;;;;;;16.95;9.43;;;;;;;-0.08;100.00;98063.94;5159498;27;20046;-66
2023/01/16 00:21:54;;;;;;;11.20;6.43;;;;;;;-0.11;100.00;98058.41;5159200;27;20055;-72
2023/01/16 00:24:20;;;;;;;15.50;8.32;;;;;;;0.01;100.00;98063.91;5159716;27;20050;-65
2023/01/16 00:26:50;;;;;;;17.67;8.48;;;;;;;0.18;100.00;98063.06;5159227;27;20051;-70
2023/01/16 00:29:16;;;;;;;14.82;7.45;;;;;;;-0.07;100.00;98059.31;5159562;27;20055;-72
2023/01/16 00:31:43;;;;;;;15.88;7.15;;;;;;;-0.12;100.00;98054.91;5159071;27;20046;-67
2023/01/16 00:34:09;;;;;;;15.70;7.72;;;;;;;-0.04;100.00;98056.78;5159349;27;20055;-66
2023/01/16 00:36:36;;;;;;;14.13;7.43;;;;;;;0.03;100.00;98058.19;5159364;27;20293;-74
2023/01/16 00:39:03;;;;;;;13.65;8.07;;;;;;;-0.01;100.00;98048.06;5158807;27;20047;-69
2023/01/16 00:41:29;;;;;;;16.65;8.05;;;;;;;-0.05;100.00;98043.63;5159193;27;20056;-67
2023/01/16 00:43:58;;;;;;;16.42;7.82;;;;;;;-0.07;100.00;98041.28;5159218;27;20332;-73
2023/01/16 00:46:25;;;;;;;11.35;6.70;;;;;;;-0.15;100.00;98042.09;5159394;27;20077;-70
2023/01/16 00:48:51;;;;;;;15.40;7.75;;;;;;;-0.19;100.00;98040.38;5158950;27;20098;-74
2023/01/16 00:51:18;;;;;;;14.25;7.35;;;;;;;-0.05;100.00;98044.44;5159061;27;20067;-70
2023/01/16 00:53:44;;;;;;;15.88;8.90;;;;;;;-0.07;100.00;98040.47;5158880;27;20130;-70
2023/01/16 00:56:10;;;;;;;12.52;7.18;;;;;;;0.02;100.00;98027.75;5159256;27;20323;-69
2023/01/16 00:58:36;;;;;;;16.63;9.45;;;;;;;0.02;100.00;98025.06;5158771;27;20411;-69
2023/01/16 01:01:03;;;;;;;7.93;4.63;;;;;;;-0.20;100.00;98022.59;5159100;27;20410;-70
2023/01/16 01:03:29;;;;;;;12.90;6.63;;;;;;;-0.11;100.00;98021.47;5158819;27;20051;-72
2023/01/16 01:05:56;;;;;;;15.65;7.93;;;;;;;-0.11;100.00;98017.97;5158527;27;20051;-66
2023/01/16 01:08:22;;;;;;;12.27;7.07;;;;;;;-0.06;100.00;98021.31;5159028;27;20047;-74
2023/01/16 01:10:49;;;;;;;10.40;6.50;;;;;;;-0.27;100.00;98015.84;5158620;27;20050;-65
2023/01/16 01:13:15;;;;;;;15.18;7.50;;;;;;;-0.11;100.00;98008.00;5159088;27;20043;-74
2023/01/16 01:15:41;;;;;;;10.77;6.25;;;;;;;-0.11;100.00;98012.59;5158522;27;20061;-71
2023/01/16 01:18:08;;;;;;;10.82;6.07;;;;;;;-0.14;100.00;98015.94;5158663;27;20057;-66
2023/01/16 01:20:34;;;;;;;15.30;7.63;;;;;;;0.01;100.00;98020.81;5158496;27;20415;-73
2023/01/16 01:23:01;;;;;;;15.07;8.02;;;;;;;-0.08;100.00;98020.81;5158860;27;20046;-67
2023/01/16 01:25:27;;;;;;;13.38;6.60;;;;;;;-0.14;100.00;98032.09;5158477;27;20129;-74
2023/01/16 01:27:53;;;;;;;8.15;4.80;;;;;;;-0.08;100.00;98011.94;5158883;27;20046;-66
2023/01/16 01:30:20;;;;;;;13.27;7.15;;;;;;;-0.14;100.00;98015.94;5158411;27;20046;-72
2023/01/16 01:32:46;;;;;;;9.95;4.70;;;;;;;-0.20;100.00;98009.13;5158331;27;20057;-71
2023/01/16 01:35:13;;;;;;;12.90;7.13;;;;;;;-0.18;100.00;98012.31;5158597;27;20050;-66
2023/01/16 01:37:39;;;;;;;12.27;7.47;;;;;;;-0.17;100.00;98011.19;5158166;27;20335;-72
2023/01/16 01:40:07;;;;;;;12.60;7.30;;;;;;;0.01;100.00;98012.72;5158570;27;20046;-65
2023/01/16 01:42:44;;;;;;;13.40;6.40;;;;;;;0.00;100.00;98013.84;5158082;27;20435;-73
2023/01/16 01:45:16;;;;;;;7.75;4.38;;;;;;;-0.11;100.00;98012.59;5158254;27;20046;-69
2023/01/16 01:47:49;;;;;;;13.77;7.20;;;;;;;-0.09;100.00;98013.88;5158087;27;20083;-68
2023/01/16 01:50:20;;;;;;;10.30;6.10;;;;;;;-0.01;100.00;98012.25;5162007;27;20371;-67
2023/01/16 01:52:47;;;;;;;11.02;6.45;;;;;;;0.03;100.00;98017.78;5164638;27;20057;-72
2023/01/16 01:55:15;;;;;;;13.18;6.78;;;;;;;-0.03;100.00;98009.09;5164830;27;20046;-73
2023/01/16 01:57:45;;;;;;;12.85;6.93;;;;;;;-0.07;100.00;98019.72;5165119;27;20055;-71
2023/01/16 02:00:16;;;;;;;8.88;5.78;;;;;;;-0.11;100.00;98017.97;5164957;27;20050;-72
2023/01/16 02:02:47;;;;;;;9.60;4.93;;;;;;;-0.05;100.00;98014.78;5164650;27;20454;-71
2023/01/16 02:05:20;;;;;;;12.15;6.57;;;;;;;-0.04;100.00;98016.38;5164613;27;20050;-67
2023/01/16 02:07:46;;;;;;;12.52;5.57;;;;;;;0.01;100.00;98018.09;5165040;27;20061;-71
2023/01/16 02:10:18;;;;;;;11.20;5.63;;;;;;;-0.05;100.00;98012.09;5164664;27;20050;-67
2023/01/16 02:12:45;;;;;;;13.13;6.53;;;;;;;0.05;100.00;98026.34;5165023;27;20055;-66
2023/01/16 02:15:11;;;;;;;11.15;5.90;;;;;;;0.15;100.00;98023.28;5164578;27;20043;-72
2023/01/16 02:20:28;;;;;;;10.90;5.93;;;;;;;0.12;100.00;98024.72;5164975;27;20084;-64
2023/01/16 02:23:23;;;;;;;8.57;5.00;;;;;;;-0.05;100.00;98025.56;5164449;27;20058;-71
2023/01/16 02:26:16;;;;;;;11.10;5.68;;;;;;;0.04;100.00;98024.75;5165000;27;20327;-65
2023/01/16 02:29:30;;;;;;;9.48;5.32;;;;;;;-0.10;100.00;98020.38;5130229;27;20092;-71
2023/01/16 02:32:08;;;;;;;11.75;5.80;;;;;;;-0.02;100.00;98029.53;5164558;27;20058;-71
2023/01/16 02:34:56;;;;;;;10.05;5.43;;;;;;;-0.05;100.00;98028.25;5164811;27;20043;-73
2023/01/16 02:37:37;;;;;;;13.20;5.70;;;;;;;0.03;100.00;98023.94;5164607;27;20042;-66
2023/01/16 02:40:21;;;;;;;11.23;5.82;;;;;;;-0.03;100.00;98017.97;5164925;27;20439;-65
2023/01/16 02:42:57;;;;;;;11.50;5.20;;;;;;;-0.08;100.00;98023.50;5164444;27;20046;-66
2023/01/16 02:45:31;;;;;;;9.10;5.13;;;;;;;0.02;100.00;98022.38;5164529;27;20305;-66
2023/01/16 02:48:04;;;;;;;8.30;4.50;;;;;;;-0.01;100.00;98025.72;5164786;27;20053;-69
2023/01/16 02:50:37;;;;;;;7.28;4.50;;;;;;;0.04;100.00;98024.75;5164406;27;20057;-71
2023/01/16 02:53:14;;;;;;;8.23;4.45;;;;;;;-0.13;100.00;98023.72;5164763;27;20352;-64
2023/01/16 02:55:46;;;;;;;9.27;5.05;;;;;;;0.12;100.00;98016.63;5164125;27;20046;-64
2023/01/16 02:58:14;;;;;;;8.93;5.28;;;;;;;0.04;100.00;98022.06;5164060;27;20057;-73
2023/01/16 03:00:50;;;;;;;10.40;5.68;;;;;;;-0.01;100.00;98031.88;5163546;27;20392;-65
2023/01/16 03:03:36;;;;;;;8.35;4.75;;;;;;;-0.03;100.00;98031.44;5160469;27;20059;-71
2023/01/16 03:06:15;;;;;;;8.32;3.88;;;;;;;-0.07;100.00;98030.50;5160953;27;20162;-67
2023/01/16 03:08:48;;;;;;;8.10;4.95;;;;;;;0.10;100.00;98035.03;5160571;27;20343;-71
2023/01/16 03:11:22;;;;;;;10.57;4.90;;;;;;;0.10;100.00;98039.63;5160380;27;20062;-66
2023/01/16 03:14:03;;;;;;;;;;;;;;;0.09;100.00;98035.34;5160864;27;20046;-69
2023/01/16 03:16:37;;;;;;;7.35;4.35;;;;;;;0.07;100.00;98038.38;5147270;27;20252;-70
2023/01/16 03:19:25;;;;;;;7.72;4.45;;;;;;;0.11;100.00;98042.00;5160658;27;20107;-71
2023/01/16 03:22:06;;;;;;;6.78;3.83;;;;;;;0.04;100.00;98051.72;5160364;27;20073;-71
2023/01/16 03:24:43;;;;;;;6.47;4.15;;;;;;;-0.01;100.00;98042.66;5160682;27;20115;-66
2023/01/16 03:27:23;;;;;;;6.95;3.58;;;;;;;-0.02;100.00;98054.56;5160220;27;20072;-64
2023/01/16 03:29:56;;;;;;;8.60;4.13;;;;;;;0.04;100.00;98049.81;5160114;27;20086;-71
2023/01/16 03:32:31;;;;;;;6.15;3.55;;;;;;;0.05;100.00;98050.59;5160070;27;20057;-70
2023/01/16 03:35:03;;;;;;;6.90;4.03;;;;;;;0.06;100.00;98052.94;5160187;27;20061;-65
2023/01/16 03:37:36;;;;;;;6.75;3.95;;;;;;;0.02;100.00;98057.41;5160309;27;20319;-67
2023/01/16 03:40:05;;;;;;;7.03;3.38;;;;;;;0.05;100.00;98048.69;5160094;27;20385;-73
2023/01/16 03:42:37;;;;;;;6.75;4.30;;;;;;;0.02;100.00;98059.31;5160295;27;20055;-65
2023/01/16 03:45:09;;;;;;;6.88;3.40;;;;;;;0.07;100.00;98054.53;5159924;27;20047;-71
2023/01/16 03:47:41;;;;;;;9.60;3.65;;;;;;;0.32;100.00;98044.75;5160301;27;20043;-69
2023/01/16 03:50:12;;;;;;;5.70;3.58;;;;;;;0.02;100.00;98056.63;5159793;27;20085;-66
2023/01/16 03:52:44;;;;;;;5.18;3.25;;;;;;;0.04;100.00;98067.88;5159798;27;20054;-65
2023/01/16 03:55:17;;;;;;;5.28;3.50;;;;;;;0.16;100.00;98057.19;5160119;27;20047;-72
2023/01/16 03:57:49;;;;;;;6.28;3.47;;;;;;;0.04;100.00;98057.09;5159824;27;20051;-71
2023/01/16 04:00:16;;;;;;;5.18;4.00;;;;;;;0.02;100.00;98054.72;5159956;27;20043;-67
2023/01/16 04:02:47;;;;;;;9.75;3.63;;;;;;;0.19;100.00;98053.84;5159543;27;20050;-66
2023/01/16 04:05:18;;;;;;;5.10;2.92;;;;;;;0.11;100.00;98068.94;5160111;27;20043;-69
2023/01/16 04:07:47;;;;;;;4.03;3.15;;;;;;;0.05;100.00;98064.84;5159564;27;20042;-66
2023/01/16 04:10:18;;;;;;;5.40;3.17;;;;;;;0.11;100.00;98060.06;5159561;27;20050;-67
2023/01/16 04:12:48;;;;;;;3.80;2.78;;;;;;;0.05;100.00;98064.84;5159104;27;20057;-69
2023/01/16 04:15:16;;;;;;;4.78;2.70;;;;;;;0.08;100.00;98064.19;5159619;27;20046;-71
2023/01/16 04:17:43;;;;;;;3.25;2.35;;;;;;;0.08;100.00;98066.13;5159690;27;20298;-71
2023/01/16 04:20:10;;;;;;;4.82;2.60;;;;;;;-0.02;100.00;98057.25;5159247;27;20412;-72
2023/01/16 04:22:37;;;;;;;3.67;2.42;;;;;;;-0.06;100.00;98066.31;5159665;27;20054;-68
2023/01/16 04:25:08;;;;;;;3.25;2.30;;;;;;;-0.06;100.00;98056.31;5159370;27;20047;-72
2023/01/16 04:27:34;;;;;;;5.47;2.67;;;;;;;-0.08;100.00;98063.94;5159677;27;20043;-66
2023/01/16 04:30:01;;;;;;;4.63;3.00;;;;;;;0.14;100.00;98056.75;5159168;27;20420;-72
2023/01/16 04:32:28;;;;;;;4.38;2.78;;;;;;;0.08;100.00;98058.03;5159485;27;20043;-72
2023/01/16 04:34:54;;;;;;;3.40;2.50;;;;;;;0.15;100.00;98066.41;5159071;27;20050;-69
2023/01/16 04:37:20;;;;;;;4.78;2.92;;;;;;;-0.01;100.00;98066.13;5159004;27;20571;-67
2023/01/16 04:39:49;;;;;;;3.15;2.38;;;;;;;0.08;100.00;98063.41;5159084;27;20102;-66
2023/01/16 04:42:15;;;;;;;2.72;1.92;;;;;;;-0.12;100.00;98076.47;5159122;27;20074;-73
2023/01/16 04:44:42;;;;;;;4.40;2.40;;;;;;;-0.09;100.00;98080.44;5159227;27;20043;-71
2023/01/16 04:47:08;;;;;;;2.95;2.28;;;;;;;-0.16;100.00;98075.53;5158847;27;20043;-73
2023/01/16 04:49:35;;;;;;;4.60;2.90;;;;;;;0.02;100.00;98070.88;5159064;27;20107;-67
2023/01/16 04:52:01;;;;;;;3.38;2.63;;;;;;;0.02;100.00;98078.16;5158742;27;20058;-71
2023/01/16 04:54:27;;;;;;;6.68;2.78;;;;;;;0.02;100.00;98070.09;5159028;27;20057;-65
2023/01/16 04:56:54;;;;;;;4.57;2.83;;;;;;;-0.05;100.00;98086.75;5158680;27;20053;-73
2023/01/16 04:59:20;;;;;;;3.22;2.45;;;;;;;-0.04;100.00;98089.09;5159049;27;20051;-65
2023/01/16 05:01:47;;;;;;;3.90;2.60;;;;;;;-0.10;100.00;98086.91;5158557;27;20077;-74
2023/01/16 05:04:14;;;;;;;3.80;2.67;;;;;;;0.01;100.00;98082.00;5158843;27;20046;-65
2023/01/16 05:06:41;;;;;;;7.88;3.20;;;;;;;0.10;100.00;98082.72;5158620;27;20050;-68
2023/01/16 05:09:08;;;;;;;3.38;2.65;;;;;;;0.07;100.00;98078.81;5158625;27;20057;-71
2023/01/16 05:11:35;;;;;;;4.05;2.83;;;;;;;0.15;100.00;98074.47;5158669;27;20057;-72
2023/01/16 05:14:02;;;;;;;5.82;3.38;;;;;;;0.12;100.00;98078.59;5158369;27;20416;-66
2023/01/16 05:16:28;;;;;;;4.47;2.72;;;;;;;0.05;100.00;98077.53;5158540;27;20050;-72
2023/01/16 05:18:54;;;;;;;8.43;3.88;;;;;;;0.29;100.00;98068.88;5158196;27;20050;-68
2023/01/16 05:21:21;;;;;;;5.50;3.63;;;;;;;0.09;100.00;98086.56;5158568;27;20047;-68
2023/01/16 05:23:47;;;;;;;8.55;3.97;;;;;;;0.25;100.00;98084.91;5157682;27;20051;-69
2023/01/16 05:26:13;;;;;;;4.57;3.20;;;;;;;0.10;100.00;98085.44;5158004;27;20110;-71
2023/01/16 05:28:39;;;;;;;4.03;3.08;;;;;;;0.03;100.00;98085.91;5158110;27;20313;-65
2023/01/16 05:31:06;;;;;;;6.60;2.95;;;;;;;0.02;100.00;98086.25;5158446;27;20050;-73
2023/01/16 05:33:33;;;;;;;6.30;3.60;;;;;;;0.12;100.00;98088.59;5157882;27;20106;-69
2023/01/16 05:35:59;;;;;;;5.53;2.70;;;;;;;0.07;100.00;98084.19;5158068;27;20054;-72
2023/01/16 05:38:25;;;;;;;6.35;3.58;;;;;;;0.05;100.00;98086.41;5158271;27;20047;-65
2023/01/16 05:40:51;;;;;;;6.60;3.03;;;;;;;-0.01;100.00;98099.25;5158048;27;20046;-72
2023/01/16 05:43:17;;;;;;;5.28;3.40;;;;;;;0.02;100.00;98095.13;5157834;27;20065;-66
2023/01/16 05:45:44;;;;;;;4.82;2.88;;;;;;;0.06;100.00;98095.28;5157700;27;20057;-74
2023/01/16 05:48:10;;;;;;;10.30;3.50;;;;;;;-0.03;100.00;98088.00;5158051;27;20060;-65
2023/01/16 05:50:37;;;;;;;7.25;4.40;;;;;;;0.11;100.00;98079.72;5157659;27;20050;-71
2023/01/16 05:53:03;;;;;;;8.00;3.85;;;;;;;-0.01;100.00;98069.59;5158119;27;20050;-71
2023/01/16 05:55:30;;;;;;;21.40;5.22;;;;;;;0.32;100.00;98058.22;5157477;27;20057;-63
2023/01/16 05:57:57;;;;;;;8.30;4.70;;;;;;;0.19;100.00;98072.72;5158043;27;20042;-63
2023/01/16 06:00:23;;;;;;;10.07;5.75;;;;;;;0.00;100.00;98056.94;5157469;27;20051;-67
2023/01/16 06:02:49;;;;;;;13.57;5.60;;;;;;;0.10;100.00;98063.88;5157794;27;20058;-69
2023/01/16 06:05:16;;;;;;;15.93;7.93;;;;;;;0.14;100.00;98062.91;5157260;27;20054;-62
2023/01/16 06:07:43;;;;;;;15.43;10.23;;;;;;;0.05;100.00;98069.44;5157630;27;20055;-65
2023/01/16 06:10:10;;;;;;;19.30;8.57;;;;;;;0.27;100.00;98061.13;5157304;27;20395;-60
2023/01/16 06:12:36;;;;;;;13.73;8.93;;;;;;;0.11;100.00;98070.84;5157225;27;20057;-63
2023/01/16 06:15:03;;;;;;;12.15;8.05;;;;;;;0.08;100.00;98068.81;5155493;27;20047;-63
2023/01/16 06:17:29;;;;;;;9.90;6.03;;;;;;;0.01;100.00;98066.59;5157337;27;20050;-62
2023/01/16 06:19:56;;;;;;;9.77;6.75;;;;;;;0.09;100.00;98063.09;5157827;27;20047;-69
2023/01/16 06:22:25;;;;;;;8.65;5.25;;;;;;;-0.01;100.00;98072.31;5157413;27;20418;-65
2023/01/16 06:24:52;;;;;;;9.40;5.20;;;;;;;-0.06;100.00;98059.03;5157862;27;20054;-67
2023/01/16 06:27:18;;;;;;;11.55;7.00;;;;;;;0.02;100.00;98060.09;5157347;27;20057;-73
2023/01/16 06:29:44;;;;;;;10.52;5.25;;;;;;;-0.06;100.00;98042.06;5157273;27;20054;-65
2023/01/16 06:32:10;;;;;;;8.45;5.13;;;;;;;-0.13;100.00;98049.88;5157452;27;20059;-63
2023/01/16 06:34:36;;;;;;;8.48;5.07;;;;;;;-0.09;100.00;98054.28;5157389;27;20407;-67
2023/01/16 06:37:03;;;;;;;8.18;4.32;;;;;;;-0.07;100.00;98059.31;5160310;27;20046;-68
2023/01/16 06:39:30;;;;;;;11.82;6.20;;;;;;;0.04;100.00;98054.41;5160656;27;20056;-64
2023/01/16 06:41:56;;;;;;;9.38;6.28;;;;;;;0.10;100.00;98056.59;5160829;27;20051;-68
2023/01/16 06:44:22;;;;;;;10.90;6.13;;;;;;;0.13;100.00;98060.53;5160543;27;20047;-64
2023/01/16 06:46:48;;;;;;;9.00;5.85;;;;;;;0.15;100.00;98063.69;5160941;27;20051;-66
2023/01/16 06:49:14;;;;;;;8.43;5.38;;;;;;;0.12;100.00;98067.03;5160462;27;20119;-66
2023/01/16 06:51:42;;;;;;;9.93;5.85;;;;;;;0.15;100.00;98080.66;5160432;27;20055;-64
2023/01/16 06:54:09;;;;;;;12.18;6.50;;;;;;;0.21;100.00;98087.47;5160274;27;20058;-65
2023/01/16 06:56:36;;;;;;;9.02;5.93;;;;;;;0.22;100.00;98099.03;5160689;27;20065;-64
2023/01/16 06:59:02;;;;;;;9.77;6.07;;;;;;;0.28;100.00;98103.13;5160231;27;20546;-70
2023/01/16 07:01:29;;;;;;;11.52;6.85;;;;;;;0.13;100.00;98126.00;5160682;27;20061;-65
2023/01/16 07:03:55;;;;;;;11.20;5.82;;;;;;;0.43;100.00;98128.75;5160396;27;20068;-71
2023/01/16 07:06:21;;;;;;;8.80;6.47;;;;;;;0.34;100.00;98147.69;5160118;27;20050;-63
2023/01/16 07:08:50;;;;;;;13.90;7.45;;;;;;;0.87;100.00;98153.66;5160445;27;20404;-71
2023/01/16 07:11:16;;;;;;;10.13;5.65;;;;;;;0.28;100.00;98175.91;5160020;27;20072;-64
2023/01/16 07:13:43;;;;;;;13.68;7.03;;;;;;;0.34;100.00;98180.03;5160449;27;20046;-66
2023/01/16 07:24:29;;;;;;;15.43;6.28;;;;;;;0.43;100.00;98191.59;5159843;27;20332;-71
2023/01/16 07:26:58;;;;;;;10.45;6.57;;;;;;;0.39;100.00;98181.75;5159872;27;20046;-68
2023/01/16 07:29:26;;;;;;;12.93;7.15;;;;;;;0.75;100.00;98172.44;5159894;27;20051;-71
2023/01/16 07:31:53;;;;;;;7.30;4.70;;;;;;;0.25;100.00;98189.25;5159985;27;20153;-66
2023/01/16 07:34:19;;;;;;;7.90;4.95;;;;;;;0.27;100.00;98185.13;5159743;27;20057;-64
2023/01/16 07:36:46;;;;;;;10.25;6.25;;;;;;;0.46;100.00;98182.84;5160100;27;20051;-65
2023/01/16 07:39:12;;;;;;;16.95;6.35;;;;;;;0.81;100.00;98171.94;5160219;27;20123;-62
2023/01/16 07:41:38;;;;;;;25.45;15.15;;;;;;;1.12;100.00;98181.59;5160114;27;20471;-73
2023/01/16 07:44:05;;;;;;;12.13;7.50;;;;;;;1.18;100.00;98210.00;5159395;27;20339;-63
2023/01/16 07:46:33;;;;;;;11.45;7.50;;;;;;;1.42;100.00;98233.69;5159793;27;20050;-66
2023/01/16 07:48:59;;;;;;;11.18;6.40;;;;;;;1.24;100.00;98270.81;5158729;27;20134;-71
2023/01/16 07:51:26;;;;;;;10.48;7.20;;;;;;;1.44;100.00;98292.78;5159396;27;20050;-62
2023/01/16 07:53:52;;;;;;;11.40;6.88;;;;;;;1.35;100.00;98315.22;5159547;27;20327;-69
2023/01/16 07:56:18;;;;;;;15.57;8.13;;;;;;;1.18;100.00;98345.78;5159106;27;20400;-62
2023/01/16 07:58:45;;;;;;;10.63;6.68;;;;;;;1.28;100.00;98363.53;5159510;27;20380;-67
2023/01/16 08:01:11;;;;;;;14.25;6.85;;;;;;;1.04;100.00;98366.78;5158973;27;20058;-66
2023/01/16 08:03:38;;;;;;;11.95;7.18;;;;;;;1.06;100.00;98372.63;5158908;27;20050;-63
2023/01/16 08:06:05;;;;;;;10.25;7.00;;;;;;;1.21;100.00;98370.56;5158794;27;20099;-69
2023/01/16 08:08:31;;;;;;;13.10;7.78;;;;;;;1.42;100.00;98380.31;5159699;27;20436;-73
2023/01/16 08:11:34;;;;;;;13.43;7.30;;;;;;;1.38;100.00;98397.50;5159189;27;20042;-68
2023/01/16 08:13:46;;;;;;;12.60;7.93;;;;;;;1.13;100.00;98431.53;5158750;27;20412;-66
2023/01/16 08:16:13;;;;;;;14.35;7.85;;;;;;;1.24;100.00;98432.81;5159713;27;20141;-77
2023/01/16 08:18:39;;;;;;;18.50;9.52;;;;;;;1.47;100.00;98436.09;5158981;27;20327;-66
2023/01/16 08:21:06;;;;;;;13.50;7.60;;;;;;;1.37;100.00;98429.13;5159146;27;20051;-72
2023/01/16 08:23:32;;;;;;;9.82;5.47;;;;;;;2.94;100.00;98417.41;5159170;27;20137;-62
2023/01/16 08:26:00;;;;;;;10.25;6.47;;;;;;;4.24;100.00;98491.88;5159479;27;20524;-74
2023/01/16 08:28:26;;;;;;;10.40;5.47;;;;;;;5.50;100.00;98573.25;5159024;27;20073;-67
2023/01/16 08:30:52;;;;;;;13.48;6.05;;;;;;;3.72;100.00;98438.25;5159095;27;20054;-73
2023/01/16 08:33:19;;;;;;;15.68;8.18;;;;;;;2.42;100.00;98458.38;5158743;27;20415;-68
2023/01/16 08:35:45;;;;;;;11.63;6.55;;;;;;;1.62;100.00;98543.63;5159169;27;20042;-73
2023/01/16 08:38:12;;;;;;;10.43;6.18;;;;;;;1.23;100.00;98581.63;5158620;27;20047;-66
2023/01/16 08:40:38;;;;;;;12.18;7.80;;;;;;;1.03;100.00;98591.13;5158631;27;20422;-70
2023/01/16 08:51:22;;;;;;;;;;;;;;;0.65;100.00;98470.31;5159002;27;20099;-66
2023/01/16 08:53:48;;;;;;;12.98;7.30;;;;;;;0.81;100.00;98422.84;5158370;27;20022;-65
2023/01/16 08:56:14;;;;;;;15.48;9.07;;;;;;;0.64;100.00;98414.78;5159150;27;20052;-68
2023/01/16 08:58:41;;;;;;;16.95;7.85;;;;;;;0.71;100.00;98388.09;5158585;27;20058;-72
2023/01/16 09:01:07;;;;;;;13.13;7.38;;;;;;;0.60;100.00;98365.25;5158664;27;20046;-66
2023/01/16 09:03:34;;;;;;;20.73;6.80;;;;;;;0.50;100.00;98344.81;5158417;27;20054;-66
2023/01/16 09:06:00;;;;;;;12.90;6.78;;;;;;;0.52;100.00;98318.31;5158429;27;20050;-68
2023/01/16 09:08:27;;;;;;;26.98;5.60;;;;;;;0.42;100.00;98297.84;5158135;27;20070;-70
2023/01/16 09:13:49;;;;;;;27.00;8.30;;;;;;;0.70;100.00;98254.34;5158326;27;20053;-66
2023/01/16 09:16:16;;;;;;;9.27;6.30;;;;;;;0.71;100.00;98258.63;5158655;27;20323;-72
2023/01/16 09:18:42;;;;;;;15.90;6.60;;;;;;;0.56;100.00;98256.41;5158457;27;20061;-68
2023/01/16 09:21:08;;;;;;;26.27;7.60;;;;;;;0.44;100.00;98244.41;5158116;27;20050;-69
2023/01/16 09:23:35;;;;;;;18.90;8.80;;;;;;;0.65;100.00;98239.09;5158442;27;20061;-69
2023/01/16 09:26:02;;;;;;;25.98;7.78;;;;;;;0.51;100.00;98227.72;5158055;27;20053;-73
2023/01/16 09:28:28;;;;;;;17.88;8.00;;;;;;;0.73;100.00;98215.13;5158293;27;20057;-70
2023/01/16 09:30:54;;;;;;;12.60;7.97;;;;;;;0.78;100.00;98215.75;5158197;27;20050;-70
2023/01/16 09:33:20;;;;;;;20.38;9.93;;;;;;;0.77;100.00;98227.66;5158241;27;20054;-67
2023/01/16 09:35:46;;;;;;;21.35;8.38;;;;;;;0.64;100.00;98236.75;5157953;27;20057;-71
2023/01/16 09:38:13;;;;;;;23.13;8.55;;;;;;;0.67;100.00;98228.00;5158410;27;20327;-66
2023/01/16 09:40:49;;;;;;;23.02;8.90;;;;;;;0.70;100.00;98233.56;5157976;27;20408;-73
2023/01/16 09:43:38;;;;;;;23.48;9.65;;;;;;;0.86;100.00;98231.09;5158641;27;20100;-70
2023/01/16 09:46:13;;;;;;;21.52;9.02;;;;;;;0.94;100.00;98243.00;5158155;27;20482;-64
2023/01/16 09:48:46;;;;;;;16.20;8.90;;;;;;;0.79;100.00;98249.69;5158359;27;20043;-67
2023/01/16 09:51:16;;;;;;;22.48;9.32;;;;;;;0.70;100.00;98240.84;5158265;27;20191;-66
2023/01/16 09:59:31;;;;;;;15.65;8.63;;;;;;;0.96;100.00;98270.44;5157983;27;20123;-65
2023/01/16 10:02:08;;;;;;;20.92;10.85;;;;;;;1.07;100.00;98274.38;5157759;27;20317;-72
2023/01/16 10:04:35;;;;;;;41.00;9.57;;;;;;;0.80;100.00;98277.47;5157988;27;20047;-73
2023/01/16 10:07:27;;;;;;;20.52;9.60;;;;;;;1.47;100.00;98275.94;5157590;27;20058;-65
2023/01/16 10:10:03;;;;;;;14.77;9.23;;;;;;;1.03;100.00;98288.81;5157801;27;20058;-65
2023/01/16 10:12:34;;;;;;;35.47;10.15;;;;;;;1.55;100.00;98296.69;5160584;27;20128;-69
2023/01/16 10:15:23;;;;;;;19.17;8.27;;;;;;;1.04;100.00;98310.09;5161236;27;20138;-71
2023/01/16 10:18:00;;;;;;;17.50;9.27;;;;;;;0.88;100.00;98312.53;5161285;27;20300;-74
2023/01/16 10:20:44;;;;;;;23.38;9.85;;;;;;;1.72;100.00;98299.28;5161348;27;20066;-67
2023/01/16 10:23:23;;;;;;;19.33;10.32;;;;;;;1.29;100.00;98343.50;5161591;27;20210;-70
2023/01/16 10:25:58;;;;;;;33.08;11.32;;;;;;;1.38;100.00;98359.69;5160922;27;20064;-72
2023/01/16 10:28:38;;;;;;;66.18;10.80;;;;;;;1.51;100.00;98366.00;5160721;27;20199;-69
2023/01/16 10:31:10;;;;;;;25.60;10.70;;;;;;;1.73;100.00;98375.75;5161060;27;20377;-73
2023/01/16 10:33:46;;;;;;;24.70;9.85;;;;;;;1.98;100.00;98398.38;5160509;27;20060;-65
2023/01/16 10:36:16;;;;;;;35.08;12.00;;;;;;;2.05;100.00;98417.56;5161203;27;20046;-68
2023/01/16 10:38:45;;;;;;;37.75;11.98;;;;;;;2.07;100.00;98447.78;5160646;27;20057;-67
2023/01/16 10:49:35;;;;;;;20.88;9.73;;;;;;;1.28;100.00;98455.34;5160929;27;20131;-66
2023/01/16 10:52:03;;;;;;;29.27;10.57;;;;;;;1.58;100.00;98423.03;5160260;27;20046;-77
2023/01/16 10:54:30;;;;;;;22.48;9.68;;;;;;;2.12;100.00;98413.22;5160557;27;20050;-75
2023/01/16 10:57:01;;;;;;;32.40;9.93;;;;;;;1.37;100.00;98444.53;5160437;27;20063;-68
2023/01/16 10:59:29;;;;;;;25.50;8.73;;;;;;;1.31;100.00;98419.59;5160812;27;20118;-71
2023/01/16 11:02:00;;;;;;;26.50;11.32;;;;;;;2.00;100.00;98404.22;5160112;27;20046;-66
2023/01/16 11:04:34;;;;;;;31.38;9.35;;;;;;;1.82;100.00;98444.06;5160473;27;20566;-74
2023/01/16 11:07:14;;;;;;;30.87;9.67;;;;;;;1.82;100.00;98452.97;5160481;27;20057;-67
2023/01/16 11:09:42;;;;;;;20.90;9.40;;;;;;;1.89;100.00;98445.13;5160350;27;20361;-63
2023/01/16 11:20:45;;;;;;;26.58;8.75;;;;;;;1.28;100.00;98352.75;5111643;27;20046;-70
2023/01/16 11:23:18;;;;;;;22.23;9.05;;;;;;;1.22;100.00;98339.75;5158617;27;20142;-63
2023/01/16 11:25:45;;;;;;;38.53;9.80;;;;;;;1.54;100.00;98335.66;5160259;27;20042;-64
2023/01/16 11:28:17;;;;;;;47.90;9.93;;;;;;;1.05;100.00;98348.69;5159932;27;20472;-62
2023/01/16 11:30:46;;;;;;;21.38;9.98;;;;;;;1.65;100.00;98326.81;5160477;27;20059;-67
2023/01/16 11:33:16;;;;;;;44.45;11.15;;;;;;;1.23;100.00;98341.31;5159641;27;20058;-58
2023/01/16 11:35:49;;;;;;;107.30;14.73;;;;;;;1.32;100.00;98329.38;5160205;27;20047;-66
2023/01/16 11:38:15;;;;;;;56.38;14.73;;;;;;;1.30;100.00;98330.81;5159795;27;20093;-70
2023/01/16 11:40:46;;;;;;;50.55;15.85;;;;;;;1.37;100.00;98323.81;5160024;27;20315;-64
2023/01/16 11:46:11;;;;;;;39.08;14.20;;;;;;;1.17;100.00;98348.81;5159999;27;20133;-65
2023/01/16 11:48:39;;;;;;;42.28;13.93;;;;;;;1.03;100.00;98329.31;5159924;27;20086;-63
2023/01/16 11:51:10;;;;;;;48.03;13.48;;;;;;;0.90;100.00;98310.31;5159636;27;20408;-66
2023/01/16 11:53:36;;;;;;;32.22;12.65;;;;;;;1.08;100.00;98289.44;5159892;27;20104;-66
2023/01/16 11:56:21;;;;;;;29.98;12.50;;;;;;;1.13;100.00;98286.59;5159419;27;20042;-66
2023/01/16 11:58:51;;;;;;;;;;;;;;;1.85;100.00;98286.66;5160139;27;20046;-64
2023/01/16 12:01:27;;;;;;;54.63;13.23;;;;;;;1.26;100.00;98327.97;5159559;27;20348;-62
2023/01/16 12:04:13;;;;;;;50.55;14.40;;;;;;;1.68;100.00;98314.59;5159415;27;20055;-68
2023/01/16 12:06:53;;;;;;;34.45;11.75;;;;;;;1.29;100.00;98332.72;5159619;27;20361;-65
2023/01/16 12:09:43;;;;;;;24.40;12.60;;;;;;;1.45;100.00;98322.16;5159381;27;20047;-66
2023/01/16 12:15:22;;;;;;;23.13;10.23;;;;;;;0.97;100.00;98331.41;5159734;27;20054;-63
2023/01/16 12:18:10;;;;;;;27.33;12.23;;;;;;;1.20;100.00;98310.38;5159366;27;20051;-66
2023/01/16 12:20:50;;;;;;;23.80;12.30;;;;;;;1.34;100.00;98304.75;5159688;27;20050;-61
2023/01/16 12:23:47;;;;;;;31.67;12.23;;;;;;;1.16;100.00;98312.13;5159047;27;20324;-60
2023/01/16 12:26:21;;;;;;;41.58;12.40;;;;;;;1.04;100.00;98320.91;5153767;27;20046;-64
2023/01/16 12:29:02;;;;;;;31.50;12.68;;;;;;;0.90;100.00;98315.72;5159414;27;20057;-64
2023/01/16 12:31:50;;;;;;;27.85;11.15;;;;;;;0.90;100.00;98302.22;5158918;27;20061;-63